Time;durP1;ratioP1;P1;durP2;ratioP2;P2;SDS_P1;SDS_P2;PMS_P1;PMS_P2;Temp;Humidity;BMP_temperature;BMP_pressure;BME280_temperature;BME280_humidity;BME280_pressure;Samples;Min_cycle;Max_cycle;Signal;HPM_P1;HPM_P2
2021/04/09 00:02:45;;;;;;;1.50;1.40;;;;;;;4.83;100.00;99407.50;5011686;28;20045;-75
2021/04/09 00:05:48;;;;;;;0.60;0.60;;;;;;;4.78;100.00;99404.56;5011617;28;20064;-75
2021/04/09 00:08:51;;;;;;;1.05;1.05;;;;;;;4.76;100.00;99407.00;5011391;28;20052;-75
2021/04/09 00:11:55;;;;;;;5.88;0.95;;;;;;;4.68;100.00;99414.72;5011050;28;20057;-75
2021/04/09 00:14:59;;;;;;;1.05;1.05;;;;;;;4.60;100.00;99408.69;5011321;28;20457;-76
2021/04/09 00:18:02;;;;;;;0.50;0.50;;;;;;;4.57;100.00;99406.81;5011022;28;20065;-75
2021/04/09 00:21:06;;;;;;;0.68;0.68;;;;;;;4.55;100.00;99409.25;5011072;28;20057;-75
2021/04/09 00:24:11;;;;;;;1.95;1.15;;;;;;;4.57;100.00;99398.56;5010957;28;20053;-75
2021/04/09 00:27:14;;;;;;;1.42;0.88;;;;;;;4.55;100.00;99392.72;5010973;28;20560;-75
2021/04/09 00:30:27;;;;;;;0.90;0.90;;;;;;;4.52;100.00;99401.91;5010448;28;20065;-75
2021/04/09 00:33:30;;;;;;;7.97;2.42;;;;;;;4.52;100.00;99410.16;5011200;28;20069;-76
2021/04/09 00:36:35;;;;;;;0.70;0.70;;;;;;;4.57;100.00;99397.78;5011039;28;20064;-75
2021/04/09 00:39:39;;;;;;;0.65;0.65;;;;;;;4.61;100.00;99401.94;5011086;28;20060;-75
2021/04/09 00:42:43;;;;;;;0.80;0.80;;;;;;;4.69;100.00;99396.97;5011325;28;20065;-75
2021/04/09 00:45:47;;;;;;;0.85;0.85;;;;;;;4.82;100.00;99394.16;5010784;28;20069;-76
2021/04/09 00:48:50;;;;;;;7.65;0.70;;;;;;;4.91;100.00;99397.00;5010776;28;20073;-76
2021/04/09 00:51:54;;;;;;;7.13;1.45;;;;;;;4.98;100.00;99391.25;5010338;28;20061;-76
2021/04/09 00:54:58;;;;;;;0.70;0.70;;;;;;;5.06;100.00;99381.47;5011031;28;20057;-75
2021/04/09 00:58:03;;;;;;;1.35;1.35;;;;;;;5.12;100.00;99374.16;5008606;28;20445;-74
2021/04/09 01:01:06;;;;;;;0.50;0.50;;;;;;;5.15;100.00;99378.78;4991965;28;20060;-75
2021/04/09 01:04:09;;;;;;;0.60;0.60;;;;;;;5.18;100.00;99384.16;5001976;28;20138;-76
2021/04/09 01:07:13;;;;;;;6.75;1.50;;;;;;;5.23;100.00;99374.53;5002361;28;20057;-76
2021/04/09 01:10:20;;;;;;;4.97;1.48;;;;;;;5.26;100.00;99373.63;4991692;28;20057;-76
2021/04/09 01:13:23;;;;;;;4.93;1.00;;;;;;;5.29;100.00;99373.50;4991021;28;20423;-75
2021/04/09 01:16:37;;;;;;;0.60;0.60;;;;;;;5.33;100.00;99370.59;4990922;28;20054;-75
2021/04/09 01:20:17;;;;;;;1.48;1.10;;;;;;;5.33;100.00;99373.34;4990403;28;20395;-76
2021/04/09 01:23:24;;;;;;;0.80;0.80;;;;;;;5.35;100.00;99373.66;4999843;28;20061;-76
2021/04/09 01:27:08;;;;;;;0.90;0.90;;;;;;;5.40;100.00;99373.09;4990646;28;20057;-75
2021/04/09 01:30:18;;;;;;;0.70;0.70;;;;;;;5.41;100.00;99363.59;4949466;28;20190;-75
2021/04/09 01:33:31;;;;;;;0.60;0.60;;;;;;;5.42;100.00;99359.59;4950068;28;20058;-76
2021/04/09 01:37:04;;;;;;;0.85;0.68;;;;;;;5.42;100.00;99356.06;4990545;28;20057;-76
2021/04/09 01:40:21;;;;;;;2.38;1.50;;;;;;;5.39;100.00;99355.75;4990515;28;20061;-75
2021/04/09 01:43:24;;;;;;;21.38;1.95;;;;;;;5.39;100.00;99349.47;4990051;28;20081;-75
2021/04/09 01:46:31;;;;;;;0.80;0.80;;;;;;;5.39;100.00;99346.72;4989822;28;20057;-75
2021/04/09 01:49:37;;;;;;;4.68;0.80;;;;;;;5.38;100.00;99347.94;4990485;28;20070;-76
2021/04/09 01:52:43;;;;;;;2.13;1.90;;;;;;;5.35;100.00;99360.63;4990428;28;20065;-75
2021/04/09 01:55:48;;;;;;;0.90;0.90;;;;;;;5.34;100.00;99341.78;4989991;28;20061;-75
2021/04/09 01:58:53;;;;;;;11.77;1.67;;;;;;;5.34;100.00;99347.28;4999503;28;20069;-75
2021/04/09 02:01:57;;;;;;;0.60;0.60;;;;;;;5.34;100.00;99350.06;5009995;28;20108;-75
2021/04/09 02:05:01;;;;;;;3.92;0.98;;;;;;;5.37;100.00;99351.94;5009389;28;20077;-75
2021/04/09 02:08:10;;;;;;;0.55;0.55;;;;;;;5.41;100.00;99341.50;5009848;28;20056;-76
2021/04/09 02:11:15;;;;;;;3.97;1.25;;;;;;;5.44;100.00;99356.38;5009830;28;20057;-75
2021/04/09 02:14:20;;;;;;;7.70;1.10;;;;;;;5.43;100.00;99341.81;5020071;28;20069;-75
2021/04/09 02:17:24;;;;;;;4.13;0.95;;;;;;;5.43;100.00;99344.59;5010705;28;20061;-74
2021/04/09 02:20:27;;;;;;;1.80;1.15;;;;;;;5.42;100.00;99348.56;5010839;28;20521;-74
2021/04/09 02:23:31;;;;;;;0.90;0.90;;;;;;;5.43;100.00;99343.81;5010874;28;20053;-75
2021/04/09 02:26:36;;;;;;;0.82;0.82;;;;;;;5.44;100.00;99345.34;5010640;28;20160;-75
2021/04/09 02:29:41;;;;;;;3.75;1.67;;;;;;;5.48;100.00;99341.22;5009136;28;20061;-75
2021/04/09 02:32:44;;;;;;;0.38;0.38;;;;;;;5.52;100.00;99344.63;5010647;28;20398;-72
2021/04/09 02:35:48;;;;;;;0.70;0.70;;;;;;;5.54;100.00;99339.41;5010288;28;20053;-72
2021/04/09 02:38:57;;;;;;;1.30;1.10;;;;;;;5.52;100.00;99335.56;5010550;28;20061;-82
2021/04/09 02:42:06;;;;;;;0.70;0.70;;;;;;;5.51;100.00;99336.78;5010107;28;20568;-81
2021/04/09 02:45:10;;;;;;;0.95;0.75;;;;;;;5.51;100.00;99332.03;5009847;28;20721;-80
2021/04/09 02:48:14;;;;;;;1.10;1.02;;;;;;;5.52;100.00;99341.88;5013856;28;20057;-80
2021/04/09 02:51:20;;;;;;;0.82;0.82;;;;;;;5.56;100.00;99339.75;5013206;28;20064;-81
2021/04/09 02:54:26;;;;;;;0.68;0.68;;;;;;;5.59;100.00;99346.34;5013319;28;20065;-81
2021/04/09 02:57:30;;;;;;;1.65;0.98;;;;;;;5.57;100.00;99365.34;5013281;28;20413;-80
2021/04/09 03:00:35;;;;;;;1.02;0.93;;;;;;;5.53;100.00;99361.94;4993803;28;20049;-81
2021/04/09 03:03:41;;;;;;;1.25;1.15;;;;;;;5.40;100.00;99367.56;4993428;28;20537;-80
2021/04/09 03:06:45;;;;;;;0.65;0.65;;;;;;;5.24;100.00;99376.09;4993940;28;20057;-80
2021/04/09 03:09:49;;;;;;;0.80;0.73;;;;;;;5.03;100.00;99374.09;5004234;28;20053;-81
2021/04/09 03:12:52;;;;;;;0.65;0.65;;;;;;;4.87;100.00;99375.06;4993035;28;20073;-81
2021/04/09 03:16:00;;;;;;;1.38;1.27;;;;;;;4.76;100.00;99376.66;4993674;28;20061;-81
2021/04/09 03:19:03;;;;;;;1.38;1.00;;;;;;;4.63;100.00;99385.72;4993742;28;20057;-81
2021/04/09 03:22:11;;;;;;;0.90;0.90;;;;;;;4.55;100.00;99378.94;4993754;28;20058;-81
2021/04/09 03:25:15;;;;;;;0.90;0.88;;;;;;;4.49;100.00;99374.44;4993620;28;20057;-81
2021/04/09 03:28:19;;;;;;;8.50;1.35;;;;;;;4.41;100.00;99375.88;4992866;28;20069;-81
2021/04/09 03:31:22;;;;;;;1.45;1.35;;;;;;;4.36;100.00;99385.50;4993451;28;20407;-81
2021/04/09 03:34:26;;;;;;;3.03;1.00;;;;;;;4.32;100.00;99382.09;4993589;28;20054;-81
2021/04/09 03:37:30;;;;;;;10.10;1.20;;;;;;;4.32;100.00;99378.56;4992993;28;20538;-81
2021/04/09 03:40:33;;;;;;;0.70;0.70;;;;;;;4.31;100.00;99377.03;4993340;28;20050;-81
2021/04/09 03:43:37;;;;;;;1.10;1.10;;;;;;;4.30;100.00;99381.75;4993537;28;20057;-80
2021/04/09 03:46:40;;;;;;;1.25;1.25;;;;;;;4.27;100.00;99382.63;4993187;28;20054;-81
2021/04/09 03:49:44;;;;;;;0.70;0.70;;;;;;;4.24;100.00;99378.03;4992163;28;20077;-82
2021/04/09 03:52:48;;;;;;;1.05;0.98;;;;;;;4.23;100.00;99387.50;5003180;28;20422;-81
2021/04/09 03:55:51;;;;;;;1.73;0.65;;;;;;;4.17;100.00;99383.78;4993025;28;20077;-82
2021/04/09 03:58:54;;;;;;;1.95;1.13;;;;;;;4.15;100.00;99394.47;5001708;28;20053;-82
2021/04/09 04:01:58;;;;;;;0.40;0.40;;;;;;;4.07;100.00;99384.13;5012555;28;20061;-82
2021/04/09 04:05:02;;;;;;;1.15;1.10;;;;;;;4.06;100.00;99394.38;5011951;28;20065;-82
2021/04/09 04:08:06;;;;;;;1.55;1.45;;;;;;;4.01;100.00;99400.41;5012432;28;20533;-82
2021/04/09 04:11:10;;;;;;;3.47;0.68;;;;;;;3.98;100.00;99404.06;5012056;28;20060;-81
2021/04/09 04:14:13;;;;;;;6.40;1.00;;;;;;;3.94;100.00;99397.91;5012228;28;20056;-81
2021/04/09 04:17:17;;;;;;;0.60;0.60;;;;;;;3.93;100.00;99403.84;5012173;28;20060;-81
2021/04/09 04:20:20;;;;;;;1.27;1.25;;;;;;;3.88;100.00;99405.16;5011661;28;20524;-80
2021/04/09 04:23:23;;;;;;;0.90;0.90;;;;;;;3.83;100.00;99403.72;5022949;28;20052;-81
2021/04/09 04:26:27;;;;;;;1.20;1.02;;;;;;;3.79;100.00;99402.28;5010673;28;20528;-81
2021/04/09 04:29:30;;;;;;;1.02;1.02;;;;;;;3.76;100.00;99400.44;5012234;28;20048;-81
2021/04/09 04:32:34;;;;;;;1.98;1.58;;;;;;;3.77;100.00;99415.75;5012032;28;20517;-80
2021/04/09 04:35:38;;;;;;;1.20;1.20;;;;;;;3.73;100.00;99410.34;5012151;28;20069;-81
2021/04/09 04:38:42;;;;;;;0.63;0.63;;;;;;;3.73;100.00;99415.09;5012170;28;20465;-81
2021/04/09 04:41:46;;;;;;;3.40;1.00;;;;;;;3.70;100.00;99410.47;5011914;28;20065;-81
2021/04/09 04:44:49;;;;;;;1.00;1.00;;;;;;;3.66;100.00;99407.06;5011825;28;20418;-81
2021/04/09 04:47:52;;;;;;;1.50;1.50;;;;;;;3.59;100.00;99404.50;5010811;28;20069;-80
2021/04/09 04:50:56;;;;;;;1.33;1.33;;;;;;;3.55;100.00;99420.38;5022097;28;20065;-80
2021/04/09 04:54:00;;;;;;;1.17;1.17;;;;;;;3.51;100.00;99416.94;5022178;28;20057;-80
2021/04/09 04:57:03;;;;;;;1.48;1.42;;;;;;;3.47;100.00;99424.53;5011571;28;20057;-80
2021/04/09 05:00:07;;;;;;;1.08;1.08;;;;;;;3.44;100.00;99419.91;4992180;28;20049;-80
2021/04/09 05:03:11;;;;;;;1.27;1.17;;;;;;;3.40;100.00;99424.75;4991752;28;20053;-80
2021/04/09 05:06:15;;;;;;;1.00;0.95;;;;;;;3.37;100.00;99420.09;4991778;28;20057;-80
2021/04/09 05:09:18;;;;;;;1.27;1.10;;;;;;;3.36;100.00;99424.06;4990099;28;20065;-81
2021/04/09 05:12:22;;;;;;;1.02;1.00;;;;;;;3.34;100.00;99427.25;5002203;28;20419;-80
2021/04/09 05:15:26;;;;;;;1.23;1.23;;;;;;;3.35;100.00;99428.81;4991598;28;20610;-80
2021/04/09 05:18:29;;;;;;;1.05;1.02;;;;;;;3.34;100.00;99426.47;4990883;28;20537;-79
2021/04/09 05:21:33;;;;;;;0.90;0.90;;;;;;;3.35;100.00;99417.03;4990143;28;20542;-78
2021/04/09 05:24:37;;;;;;;2.13;1.92;;;;;;;3.33;100.00;99425.72;4988454;28;20053;-78
2021/04/09 05:27:40;;;;;;;2.25;2.05;;;;;;;3.27;100.00;99421.19;4989344;28;20553;-78
2021/04/09 05:30:44;;;;;;;1.52;1.42;;;;;;;3.26;100.00;99425.13;4989626;28;20085;-77
2021/04/09 05:33:47;;;;;;;8.60;2.33;;;;;;;3.21;100.00;99422.91;4989639;28;20061;-78
2021/04/09 05:36:51;;;;;;;6.18;2.78;;;;;;;3.18;100.00;99423.81;4989318;28;20057;-79
2021/04/09 05:39:54;;;;;;;1.67;1.42;;;;;;;3.16;100.00;99427.00;4990312;28;20061;-78
2021/04/09 05:43:04;;;;;;;2.20;2.03;;;;;;;3.15;100.00;99425.44;5000678;28;20053;-79
2021/04/09 05:46:08;;;;;;;13.25;3.30;;;;;;;3.13;100.00;99432.59;4999548;28;20068;-79
2021/04/09 05:49:11;;;;;;;2.25;2.03;;;;;;;3.11;100.00;99435.78;4999788;28;20061;-79
2021/04/09 05:52:15;;;;;;;3.85;2.85;;;;;;;3.12;100.00;99431.06;4999114;28;20434;-79
2021/04/09 05:55:19;;;;;;;7.18;1.55;;;;;;;3.10;100.00;99445.22;4999762;28;20072;-79
2021/04/09 05:58:22;;;;;;;13.68;2.45;;;;;;;3.08;100.00;99437.41;5000312;28;20049;-79
2021/04/09 06:01:28;;;;;;;3.53;2.08;;;;;;;3.13;100.00;99443.59;4998827;28;20076;-79
2021/04/09 07:34:54;;;;;;;1.58;1.48;;;;;;;4.01;100.00;99494.09;5070480;28;20389;-78
2021/04/09 07:37:59;;;;;;;2.17;1.60;;;;;;;4.01;100.00;99491.34;5070533;28;20108;-78
2021/04/09 07:41:09;;;;;;;1.65;1.55;;;;;;;4.02;100.00;99481.09;5069373;28;20047;-78
2021/04/09 07:44:16;;;;;;;1.48;1.48;;;;;;;3.98;100.00;99475.69;5069298;28;20047;-78
2021/04/09 07:47:20;;;;;;;5.82;2.80;;;;;;;4.04;100.00;99478.66;5069286;28;20507;-78
2021/04/09 07:50:54;;;;;;;1.60;1.50;;;;;;;4.18;100.00;99484.50;5070031;28;20040;-77
2021/04/09 07:54:12;;;;;;;5.05;2.40;;;;;;;4.24;100.00;99480.00;5069280;28;20524;-79
2021/04/09 07:57:29;;;;;;;1.17;1.15;;;;;;;4.38;100.00;99487.81;5069338;28;20055;-79
2021/04/09 08:00:32;;;;;;;14.93;1.73;;;;;;;4.70;100.00;99486.00;5068984;28;20527;-79
2021/04/09 08:03:38;;;;;;;1.75;1.40;;;;;;;5.00;100.00;99474.34;5069760;28;20040;-78
2021/04/09 08:06:41;;;;;;;1.58;1.10;;;;;;;5.18;100.00;99466.19;5068951;28;20425;-79
2021/04/09 08:09:50;;;;;;;6.25;1.27;;;;;;;5.27;100.00;99466.25;5069747;28;20056;-77
2021/04/09 08:12:56;;;;;;;2.30;1.70;;;;;;;5.34;100.00;99471.53;5069877;28;20404;-79
2021/04/09 08:15:59;;;;;;;16.80;3.92;;;;;;;5.34;100.00;99471.53;5068911;28;20047;-79
2021/04/09 08:19:04;;;;;;;16.77;3.40;;;;;;;5.35;100.00;99473.06;5069614;28;20052;-79
2021/04/09 08:22:09;;;;;;;12.45;3.00;;;;;;;5.45;100.00;99471.16;5069388;28;20040;-77
2021/04/09 08:25:14;;;;;;;3.67;2.08;;;;;;;5.61;100.00;99490.28;5068487;28;20401;-77
2021/04/09 08:28:17;;;;;;;8.27;2.92;;;;;;;5.75;100.00;99481.47;5069550;28;20051;-79
2021/04/09 08:31:21;;;;;;;2.95;1.65;;;;;;;5.82;100.00;99479.22;5068591;28;20051;-79
2021/04/09 08:34:25;;;;;;;7.35;2.08;;;;;;;5.77;100.00;99482.56;5083804;28;20044;-79
2021/04/09 08:37:29;;;;;;;3.97;1.80;;;;;;;5.81;100.00;99480.44;5055872;28;20385;-79
2021/04/09 08:40:33;;;;;;;5.65;2.45;;;;;;;5.86;100.00;99479.88;5054914;28;20044;-80
2021/04/09 08:43:38;;;;;;;16.25;3.42;;;;;;;5.91;100.00;99484.78;5054867;28;20040;-80
2021/04/09 08:46:42;;;;;;;5.43;1.35;;;;;;;5.87;100.00;99484.16;5055113;28;20052;-80
2021/04/09 08:49:46;;;;;;;9.00;2.45;;;;;;;5.96;100.00;99481.44;5054832;28;20385;-79
2021/04/09 08:52:50;;;;;;;2.92;1.88;;;;;;;5.97;100.00;99485.78;5055532;28;20497;-79
2021/04/09 08:55:53;;;;;;;10.77;1.90;;;;;;;5.81;100.00;99480.44;5054655;28;20127;-79
2021/04/09 08:58:57;;;;;;;6.65;1.25;;;;;;;5.86;100.00;99484.63;5054800;28;20500;-79
2021/04/09 09:02:26;;;;;;;5.30;2.05;;;;;;;5.93;100.00;99487.88;5054562;28;20040;-79
2021/04/09 09:05:31;;;;;;;6.15;2.20;;;;;;;5.94;100.00;99483.13;5054903;28;20060;-79
2021/04/09 09:08:41;;;;;;;5.30;2.10;;;;;;;5.94;100.00;99489.44;5055242;28;20044;-79
2021/04/09 09:11:49;;;;;;;11.05;1.75;;;;;;;5.94;100.00;99483.13;5054313;28;20039;-77
2021/04/09 09:14:52;;;;;;;4.10;1.92;;;;;;;5.91;100.00;99484.78;5055410;28;20404;-79
2021/04/09 09:17:56;;;;;;;5.38;2.25;;;;;;;5.94;100.00;99483.91;5054524;28;20060;-79
2021/04/09 09:21:10;;;;;;;4.28;1.58;;;;;;;5.99;100.00;99491.63;5054294;28;20047;-79
2021/04/09 09:24:19;;;;;;;1.90;1.50;;;;;;;6.13;100.00;99489.53;5054104;28;20040;-79
2021/04/09 09:27:52;;;;;;;6.47;1.88;;;;;;;6.26;100.00;99487.44;5054245;28;20048;-80
2021/04/09 09:30:55;;;;;;;4.95;1.48;;;;;;;6.33;100.00;99492.66;5054841;28;20051;-80
2021/04/09 09:34:26;;;;;;;2.80;1.60;;;;;;;6.51;100.00;99495.50;5054756;28;20393;-79
2021/04/09 09:37:35;;;;;;;2.03;1.88;;;;;;;6.61;100.00;99499.81;5052111;28;20052;-79
2021/04/09 09:40:42;;;;;;;2.60;1.65;;;;;;;6.60;100.00;99495.53;5053885;28;20040;-80
2021/04/09 09:43:45;;;;;;;1.73;1.52;;;;;;;6.58;100.00;99497.97;5054564;28;20040;-79
2021/04/09 09:47:02;;;;;;;9.05;1.65;;;;;;;6.55;100.00;99498.88;5053716;28;20055;-80
2021/04/09 09:53:09;;;;;;;1.98;1.60;;;;;;;6.57;100.00;99496.44;5055347;28;20048;-79
2021/04/09 09:56:28;;;;;;;6.32;1.83;;;;;;;6.56;100.00;99501.19;5051299;28;20088;-79
2021/04/09 09:59:31;;;;;;;12.32;4.47;;;;;;;6.51;100.00;99501.81;5052314;28;20052;-79
2021/04/09 10:02:35;;;;;;;2.15;1.73;;;;;;;6.44;100.00;99509.59;5052448;28;20052;-79
2021/04/09 10:05:40;;;;;;;3.88;0.98;;;;;;;6.50;100.00;99502.25;5052836;28;20044;-79
2021/04/09 10:08:44;;;;;;;1.40;1.30;;;;;;;6.46;100.00;99512.69;5052376;28;20051;-81
2021/04/09 10:11:47;;;;;;;5.75;2.03;;;;;;;6.38;100.00;99516.97;5052879;28;20074;-77
2021/04/09 10:14:53;;;;;;;2.05;1.52;;;;;;;6.37;100.00;99512.66;5052723;28;20040;-80
2021/04/09 10:18:05;;;;;;;1.05;1.05;;;;;;;6.39;100.00;99507.47;5053567;28;20060;-80
2021/04/09 10:21:23;;;;;;;2.10;1.02;;;;;;;6.32;100.00;99510.50;5052961;28;20044;-79
2021/04/09 10:24:37;;;;;;;1.77;1.25;;;;;;;6.33;100.00;99520.31;5051781;28;20039;-80
2021/04/09 10:27:43;;;;;;;2.63;1.67;;;;;;;6.55;100.00;99515.47;5052536;28;20048;-80
2021/04/09 10:30:52;;;;;;;4.47;1.33;;;;;;;6.83;100.00;99509.56;5051687;28;20516;-79
2021/04/09 10:33:57;;;;;;;1.38;1.27;;;;;;;7.21;100.00;99514.66;5051608;28;20063;-79
2021/04/09 10:37:02;;;;;;;7.32;2.05;;;;;;;7.46;100.00;99508.06;5051695;28;20068;-80
2021/04/09 10:40:07;;;;;;;3.53;2.10;;;;;;;7.73;100.00;99502.50;5051481;28;20047;-80
2021/04/09 10:43:10;;;;;;;5.10;2.22;;;;;;;7.98;100.00;99507.69;5051472;28;20044;-80
2021/04/09 10:46:14;;;;;;;0.98;0.93;;;;;;;8.10;100.00;99494.88;5052369;28;20051;-80
2021/04/09 10:49:20;;;;;;;1.17;0.50;;;;;;;8.21;100.00;99504.22;5052359;28;20417;-80
2021/04/09 10:52:25;;;;;;;4.15;0.75;;;;;;;8.25;100.00;99496.50;5051345;28;20047;-80
2021/04/09 10:55:32;;;;;;;14.60;1.45;;;;;;;8.33;100.00;99502.50;5052364;28;20048;-80
2021/04/09 10:58:36;;;;;;;4.35;0.82;;;;;;;8.31;100.00;99488.34;5051911;28;20508;-80
2021/04/09 11:01:41;;;;;;;2.55;1.15;;;;;;;8.33;100.00;99485.84;5051459;28;20524;-81
2021/04/09 11:04:53;;;;;;;1.88;1.33;;;;;;;8.60;100.00;99491.25;5051527;28;20056;-80
2021/04/09 11:07:57;;;;;;;3.25;0.93;;;;;;;8.86;100.00;99483.25;5052175;28;20064;-80
2021/04/09 11:11:06;;;;;;;6.55;0.85;;;;;;;8.92;100.00;99484.88;5051408;28;20060;-80
2021/04/09 11:14:18;;;;;;;5.95;0.82;;;;;;;9.05;100.00;99490.22;5051976;28;20036;-80
2021/04/09 11:17:22;;;;;;;;;;;;;;;9.14;100.00;99485.34;5052180;28;20052;-80
2021/04/09 11:20:33;;;;;;;5.05;0.80;;;;;;;9.17;100.00;99489.19;5051050;28;20365;-80
2021/04/09 11:23:40;;;;;;;4.57;0.60;;;;;;;9.28;100.00;99480.31;5050971;28;20056;-80
2021/04/09 11:26:43;;;;;;;5.10;0.52;;;;;;;9.22;100.00;99479.44;5050908;28;20060;-80
2021/04/09 11:29:48;;;;;;;6.30;1.90;;;;;;;9.35;100.00;99482.72;5051871;28;20500;-80
2021/04/09 11:32:53;;;;;;;3.40;1.33;;;;;;;9.49;100.00;99482.75;5050632;28;20048;-81
2021/04/09 11:35:56;;;;;;;0.90;0.60;;;;;;;9.31;100.00;99482.94;5050877;28;20060;-80
2021/04/09 11:39:09;;;;;;;11.15;0.98;;;;;;;9.08;100.00;99476.16;5052292;28;20060;-80
2021/04/09 11:42:12;;;;;;;9.23;1.55;;;;;;;8.98;100.00;99477.47;5074608;28;20048;-80
2021/04/09 11:45:16;;;;;;;2.30;0.75;;;;;;;8.91;100.00;99483.38;5051952;28;20393;-81
2021/04/09 11:48:29;;;;;;;4.30;0.73;;;;;;;8.84;100.00;99478.16;5051740;28;20064;-82
2021/04/09 11:51:36;;;;;;;8.63;1.45;;;;;;;8.59;100.00;99481.41;5051594;28;20048;-80
2021/04/09 11:54:42;;;;;;;6.93;0.77;;;;;;;8.59;100.00;99478.63;5051293;28;20056;-80
2021/04/09 11:57:45;;;;;;;2.38;0.90;;;;;;;8.86;100.00;99478.47;5051690;28;20048;-81
2021/04/09 12:00:59;;;;;;;3.00;1.30;;;;;;;9.23;100.00;99480.97;5074759;28;20067;-80
2021/04/09 12:04:03;;;;;;;3.95;1.30;;;;;;;9.26;100.00;99471.69;5052420;28;20048;-81
2021/04/09 12:07:27;;;;;;;3.03;1.15;;;;;;;9.27;100.00;99471.19;5052325;28;20385;-80
2021/04/09 12:10:33;;;;;;;0.47;0.30;;;;;;;9.20;100.00;99471.59;5054202;28;20051;-80
2021/04/09 12:13:38;;;;;;;5.88;0.90;;;;;;;9.27;100.00;99470.47;5055306;28;20048;-79
2021/04/09 12:16:41;;;;;;;0.50;0.50;;;;;;;9.18;100.00;99469.28;5055994;28;20032;-80
2021/04/09 12:19:46;;;;;;;6.35;1.63;;;;;;;9.20;100.00;99476.38;5055125;28;20390;-79
2021/04/09 12:22:50;;;;;;;4.32;0.57;;;;;;;9.25;100.00;99475.72;5055033;28;20052;-80
2021/04/09 12:25:58;;;;;;;9.07;1.75;;;;;;;9.27;100.00;99479.53;5054652;28;20202;-78
2021/04/09 12:29:02;;;;;;;9.20;1.52;;;;;;;9.29;100.00;99479.09;5055146;28;20048;-77
2021/04/09 12:32:06;;;;;;;9.25;1.95;;;;;;;9.23;100.00;99472.63;5054090;28;20048;-77
2021/04/09 12:35:11;;;;;;;12.30;2.53;;;;;;;9.06;100.00;99484.19;5055803;28;20051;-76
2021/04/09 12:38:14;;;;;;;5.05;0.93;;;;;;;8.99;100.00;99476.22;5055816;28;20391;-77
2021/04/09 12:41:18;;;;;;;8.50;1.00;;;;;;;8.86;100.00;99486.78;5035847;28;20398;-77
2021/04/09 12:44:21;;;;;;;4.80;1.02;;;;;;;8.80;100.00;99485.91;5034488;28;20489;-77
2021/04/09 12:47:25;;;;;;;3.13;0.68;;;;;;;8.59;100.00;99489.75;5035418;28;20056;-76
2021/04/09 12:50:28;;;;;;;3.05;1.20;;;;;;;8.20;100.00;99501.91;5034622;28;20048;-76
2021/04/09 12:53:32;;;;;;;3.75;1.13;;;;;;;7.93;100.00;99493.66;5034514;28;20508;-76
2021/04/09 12:56:35;;;;;;;3.65;1.23;;;;;;;7.79;100.00;99494.31;5052507;28;20044;-76
2021/04/09 12:59:39;;;;;;;0.68;0.65;;;;;;;7.56;100.00;99488.19;5054428;28;20055;-77
2021/04/09 13:02:42;;;;;;;0.60;0.60;;;;;;;7.40;100.00;99491.31;5054425;28;20052;-76
2021/04/09 13:05:46;;;;;;;1.75;1.25;;;;;;;7.44;100.00;99497.47;5053562;28;20052;-76
2021/04/09 13:08:49;;;;;;;4.45;1.58;;;;;;;7.70;100.00;99486.78;5076916;28;20047;-76
2021/04/09 13:11:53;;;;;;;2.33;1.15;;;;;;;7.92;100.00;99486.59;5054386;28;20047;-76
2021/04/09 13:14:57;;;;;;;2.42;1.23;;;;;;;8.08;100.00;99472.34;5045435;28;20049;-76
2021/04/09 13:18:00;;;;;;;9.50;3.28;;;;;;;8.23;100.00;99478.75;5035181;28;20049;-76
2021/04/09 13:21:05;;;;;;;3.75;1.50;;;;;;;8.30;100.00;99481.25;5034102;28;20051;-77
2021/04/09 13:24:09;;;;;;;5.38;1.25;;;;;;;8.31;100.00;99485.56;5056895;28;20052;-76
2021/04/09 13:27:15;;;;;;;1.63;0.60;;;;;;;8.36;100.00;99471.81;5034708;28;20064;-77
2021/04/09 13:30:19;;;;;;;1.85;1.13;;;;;;;8.60;100.00;99484.97;5034007;28;20048;-79
2021/04/09 13:33:27;;;;;;;7.53;0.90;;;;;;;8.85;100.00;99474.16;5056711;28;20057;-80
2021/04/09 13:36:30;;;;;;;7.43;0.60;;;;;;;9.04;100.00;99486.69;5034584;28;20147;-81
2021/04/09 13:39:34;;;;;;;2.88;0.68;;;;;;;9.05;100.00;99479.88;5033627;28;20056;-81
2021/04/09 13:42:38;;;;;;;6.50;0.77;;;;;;;9.04;100.00;99470.00;5033840;28;20060;-81
2021/04/09 13:45:42;;;;;;;3.88;0.90;;;;;;;9.04;100.00;99483.13;5033597;28;20045;-80
2021/04/09 13:48:45;;;;;;;0.98;0.77;;;;;;;9.08;100.00;99476.16;5033802;28;20053;-78
2021/04/09 13:51:58;;;;;;;6.40;1.80;;;;;;;9.22;100.00;99473.88;5034413;28;20505;-78
2021/04/09 13:55:02;;;;;;;0.77;0.77;;;;;;;9.38;100.00;99473.44;5056891;28;20509;-78
2021/04/09 13:58:05;;;;;;;3.22;0.35;;;;;;;9.31;100.00;99476.59;5034192;28;20049;-78
2021/04/09 14:01:09;;;;;;;1.88;0.57;;;;;;;9.32;100.00;99478.88;5044846;28;20394;-80
2021/04/09 14:04:13;;;;;;;0.50;0.50;;;;;;;9.40;100.00;99476.53;5033206;28;20049;-82
2021/04/09 14:07:16;;;;;;;1.50;0.65;;;;;;;9.61;100.00;99478.16;5032907;28;20547;-82
2021/04/09 14:10:20;;;;;;;5.85;0.50;;;;;;;9.76;100.00;99490.06;5033030;28;20486;-82
2021/04/09 14:13:24;;;;;;;0.50;0.32;;;;;;;9.63;100.00;99478.47;5032989;28;20048;-82
2021/04/09 14:16:27;;;;;;;7.78;0.85;;;;;;;9.29;100.00;99484.63;5056225;28;20074;-85
2021/04/09 14:19:31;;;;;;;7.18;1.02;;;;;;;9.13;100.00;99486.63;5034218;28;20048;-84
2021/04/09 14:22:35;;;;;;;0.80;0.30;;;;;;;8.99;100.00;99490.09;5056164;28;20393;-84
2021/04/09 14:25:39;;;;;;;4.32;0.75;;;;;;;8.71;100.00;99485.19;5032958;28;20052;-83
2021/04/09 14:28:42;;;;;;;2.15;0.32;;;;;;;8.28;100.00;99492.81;5055997;28;20397;-81
2021/04/09 14:31:46;;;;;;;0.77;0.57;;;;;;;7.90;100.00;99505.69;5032253;28;20056;-83
2021/04/09 14:34:49;;;;;;;0.43;0.43;;;;;;;7.54;100.00;99504.50;5032996;28;20393;-83
2021/04/09 14:37:53;;;;;;;0.50;0.50;;;;;;;7.26;100.00;99508.53;5032644;28;20052;-77
2021/04/09 14:40:57;;;;;;;0.45;0.40;;;;;;;7.03;100.00;99508.38;5055474;28;20060;-79
2021/04/09 14:44:00;;;;;;;4.47;0.63;;;;;;;6.82;100.00;99510.03;5033246;28;20056;-78
2021/04/09 14:47:03;;;;;;;1.23;0.50;;;;;;;6.64;100.00;99507.22;5033312;28;20049;-78
2021/04/09 14:50:07;;;;;;;1.58;0.73;;;;;;;6.50;100.00;99503.00;5032573;28;20048;-78
2021/04/09 14:53:11;;;;;;;0.85;0.85;;;;;;;6.45;100.00;99500.88;5032394;28;20052;-79
2021/04/09 14:56:15;;;;;;;1.27;0.90;;;;;;;6.38;100.00;99498.38;5033180;28;20052;-82
2021/04/09 14:59:18;;;;;;;6.82;1.42;;;;;;;6.35;100.00;99495.72;5032448;28;20044;-80
2021/04/09 15:02:22;;;;;;;7.13;2.00;;;;;;;6.43;100.00;99497.00;5033027;28;20432;-79
2021/04/09 15:05:25;;;;;;;3.95;1.10;;;;;;;6.57;100.00;99496.44;5032075;28;20109;-78
2021/04/09 15:08:29;;;;;;;6.05;0.95;;;;;;;6.72;100.00;99491.84;5054870;28;20103;-78
2021/04/09 15:11:36;;;;;;;3.20;1.00;;;;;;;6.88;100.00;99494.34;5031770;28;20052;-77
2021/04/09 15:14:39;;;;;;;4.85;0.95;;;;;;;7.07;100.00;99497.91;5031900;28;20500;-76
2021/04/09 15:17:42;;;;;;;1.77;0.35;;;;;;;7.23;100.00;99498.41;5054924;28;20052;-76
2021/04/09 15:20:46;;;;;;;2.85;0.68;;;;;;;7.31;100.00;99487.75;5031999;28;20056;-75
2021/04/09 15:23:49;;;;;;;4.20;1.23;;;;;;;7.49;100.00;99494.03;5031172;28;20048;-75
2021/04/09 15:26:53;;;;;;;2.40;1.17;;;;;;;7.62;100.00;99480.78;5032167;28;20056;-75
2021/04/09 15:29:56;;;;;;;1.20;0.60;;;;;;;7.74;100.00;99481.09;5032094;28;20374;-76
2021/04/09 15:32:59;;;;;;;0.90;0.50;;;;;;;7.84;100.00;99479.84;5031833;28;20509;-75
2021/04/09 15:36:03;;;;;;;5.88;0.75;;;;;;;8.01;100.00;99483.78;5031067;28;20044;-76
2021/04/09 15:39:07;;;;;;;0.68;0.68;;;;;;;8.25;100.00;99481.88;5031944;28;20060;-76
2021/04/09 15:42:10;;;;;;;0.20;0.20;;;;;;;8.41;100.00;99481.50;5032039;28;20052;-76
2021/04/09 15:45:14;;;;;;;7.10;0.85;;;;;;;8.48;100.00;99483.94;5033642;28;20036;-76
2021/04/09 15:48:18;;;;;;;1.55;0.60;;;;;;;8.53;100.00;99485.31;5034840;28;20362;-76
2021/04/09 15:51:22;;;;;;;0.30;0.30;;;;;;;8.57;100.00;99483.91;5057540;28;20045;-76
2021/04/09 15:54:25;;;;;;;1.00;0.47;;;;;;;8.58;100.00;99476.31;5035007;28;20064;-75
2021/04/09 15:57:29;;;;;;;2.00;0.22;;;;;;;8.53;100.00;99474.97;5057982;28;20373;-75
2021/04/09 16:00:32;;;;;;;0.35;0.35;;;;;;;8.61;100.00;99470.59;5035552;28;20065;-76
2021/04/09 16:03:35;;;;;;;1.33;0.60;;;;;;;8.66;100.00;99477.53;5034335;28;20056;-76
2021/04/09 16:06:39;;;;;;;0.20;0.20;;;;;;;8.65;100.00;99476.75;5057638;28;20047;-74
2021/04/09 16:09:42;;;;;;;2.17;0.52;;;;;;;8.66;100.00;99478.31;5035279;28;20048;-74